sensor_id;sensor_type;location;lat;lon;timestamp;P1;durP1;ratioP1;P2;durP2;ratioP2
15043;SDS011;7619;48.562;8.910;2022-08-30T00:01:24;7.00;;;4.30;;
15043;SDS011;7619;48.562;8.910;2022-08-30T00:03:54;4.57;;;3.63;;
15043;SDS011;7619;48.562;8.910;2022-08-30T00:06:24;5.00;;;3.73;;
15043;SDS011;7619;48.562;8.910;2022-08-30T00:08:52;7.67;;;3.60;;
15043;SDS011;7619;48.562;8.910;2022-08-30T00:11:23;5.67;;;3.47;;
15043;SDS011;7619;48.562;8.910;2022-08-30T00:13:56;4.53;;;3.93;;
15043;SDS011;7619;48.562;8.910;2022-08-30T00:16:24;5.60;;;4.10;;
15043;SDS011;7619;48.562;8.910;2022-08-30T00:18:53;4.50;;;3.83;;
15043;SDS011;7619;48.562;8.910;2022-08-30T00:21:21;4.50;;;4.10;;
15043;SDS011;7619;48.562;8.910;2022-08-30T00:23:49;4.13;;;3.30;;
15043;SDS011;7619;48.562;8.910;2022-08-30T00:26:17;6.47;;;4.27;;
15043;SDS011;7619;48.562;8.910;2022-08-30T00:28:46;4.90;;;3.70;;
15043;SDS011;7619;48.562;8.910;2022-08-30T00:31:15;7.23;;;5.53;;
15043;SDS011;7619;48.562;8.910;2022-08-30T00:33:43;6.97;;;4.17;;
15043;SDS011;7619;48.562;8.910;2022-08-30T00:41:25;7.43;;;4.97;;
15043;SDS011;7619;48.562;8.910;2022-08-30T00:43:54;5.73;;;3.93;;
15043;SDS011;7619;48.562;8.910;2022-08-30T00:46:23;5.93;;;4.00;;
15043;SDS011;7619;48.562;8.910;2022-08-30T00:48:51;5.07;;;4.00;;
15043;SDS011;7619;48.562;8.910;2022-08-30T00:51:21;5.03;;;4.53;;
15043;SDS011;7619;48.562;8.910;2022-08-30T00:53:53;5.07;;;4.03;;
15043;SDS011;7619;48.562;8.910;2022-08-30T00:56:21;6.17;;;3.50;;
15043;SDS011;7619;48.562;8.910;2022-08-30T00:58:52;5.83;;;3.83;;
15043;SDS011;7619;48.562;8.910;2022-08-30T01:01:21;7.87;;;3.67;;
15043;SDS011;7619;48.562;8.910;2022-08-30T01:03:49;4.77;;;3.97;;
15043;SDS011;7619;48.562;8.910;2022-08-30T01:06:18;5.10;;;3.83;;
15043;SDS011;7619;48.562;8.910;2022-08-30T01:08:46;6.50;;;4.07;;
15043;SDS011;7619;48.562;8.910;2022-08-30T01:11:15;5.23;;;3.93;;
15043;SDS011;7619;48.562;8.910;2022-08-30T01:13:47;3.93;;;3.53;;
15043;SDS011;7619;48.562;8.910;2022-08-30T01:16:16;5.87;;;4.33;;
15043;SDS011;7619;48.562;8.910;2022-08-30T01:18:47;4.10;;;3.67;;
15043;SDS011;7619;48.562;8.910;2022-08-30T01:21:19;6.30;;;3.90;;
15043;SDS011;7619;48.562;8.910;2022-08-30T01:23:48;6.67;;;4.20;;
15043;SDS011;7619;48.562;8.910;2022-08-30T01:26:19;3.83;;;3.27;;
15043;SDS011;7619;48.562;8.910;2022-08-30T01:28:51;4.10;;;3.60;;
15043;SDS011;7619;48.562;8.910;2022-08-30T01:31:20;7.33;;;4.30;;
15043;SDS011;7619;48.562;8.910;2022-08-30T01:33:49;4.17;;;3.77;;
15043;SDS011;7619;48.562;8.910;2022-08-30T01:36:18;5.83;;;4.90;;
15043;SDS011;7619;48.562;8.910;2022-08-30T01:38:49;5.30;;;4.13;;
15043;SDS011;7619;48.562;8.910;2022-08-30T01:41:18;9.83;;;4.43;;
15043;SDS011;7619;48.562;8.910;2022-08-30T01:43:49;7.77;;;4.27;;
15043;SDS011;7619;48.562;8.910;2022-08-30T01:46:21;5.90;;;4.37;;
15043;SDS011;7619;48.562;8.910;2022-08-30T01:48:50;7.10;;;4.73;;
15043;SDS011;7619;48.562;8.910;2022-08-30T01:51:22;4.80;;;4.17;;
15043;SDS011;7619;48.562;8.910;2022-08-30T01:53:51;4.90;;;4.10;;
15043;SDS011;7619;48.562;8.910;2022-08-30T01:56:21;4.90;;;4.37;;
15043;SDS011;7619;48.562;8.910;2022-08-30T01:58:49;7.17;;;4.50;;
15043;SDS011;7619;48.562;8.910;2022-08-30T02:01:18;6.53;;;4.50;;
15043;SDS011;7619;48.562;8.910;2022-08-30T02:03:49;6.23;;;4.07;;
15043;SDS011;7619;48.562;8.910;2022-08-30T02:06:19;4.90;;;3.90;;
15043;SDS011;7619;48.562;8.910;2022-08-30T02:08:48;6.17;;;3.60;;
15043;SDS011;7619;48.562;8.910;2022-08-30T02:11:16;4.07;;;3.57;;
15043;SDS011;7619;48.562;8.910;2022-08-30T02:13:45;4.27;;;3.87;;
15043;SDS011;7619;48.562;8.910;2022-08-30T02:16:14;4.70;;;3.83;;
15043;SDS011;7619;48.562;8.910;2022-08-30T02:18:47;4.87;;;4.37;;
15043;SDS011;7619;48.562;8.910;2022-08-30T02:21:17;7.53;;;3.83;;
15043;SDS011;7619;48.562;8.910;2022-08-30T02:23:45;4.80;;;4.03;;
15043;SDS011;7619;48.562;8.910;2022-08-30T02:26:14;5.90;;;4.03;;
15043;SDS011;7619;48.562;8.910;2022-08-30T02:28:44;4.40;;;4.00;;
15043;SDS011;7619;48.562;8.910;2022-08-30T02:31:14;5.03;;;4.40;;
15043;SDS011;7619;48.562;8.910;2022-08-30T02:33:43;6.83;;;4.00;;
15043;SDS011;7619;48.562;8.910;2022-08-30T02:36:13;6.27;;;3.90;;
15043;SDS011;7619;48.562;8.910;2022-08-30T02:38:41;8.10;;;4.40;;
15043;SDS011;7619;48.562;8.910;2022-08-30T02:41:10;7.33;;;4.53;;
15043;SDS011;7619;48.562;8.910;2022-08-30T02:43:39;5.47;;;4.70;;
15043;SDS011;7619;48.562;8.910;2022-08-30T02:46:06;5.13;;;4.00;;
15043;SDS011;7619;48.562;8.910;2022-08-30T02:48:35;7.07;;;4.50;;
15043;SDS011;7619;48.562;8.910;2022-08-30T02:51:06;5.47;;;4.53;;
15043;SDS011;7619;48.562;8.910;2022-08-30T02:53:33;6.10;;;4.10;;
15043;SDS011;7619;48.562;8.910;2022-08-30T02:56:03;5.33;;;4.57;;
15043;SDS011;7619;48.562;8.910;2022-08-30T02:58:33;7.80;;;4.73;;
15043;SDS011;7619;48.562;8.910;2022-08-30T03:01:01;4.67;;;4.07;;
15043;SDS011;7619;48.562;8.910;2022-08-30T03:03:30;5.37;;;4.13;;
15043;SDS011;7619;48.562;8.910;2022-08-30T03:06:00;4.63;;;4.13;;
15043;SDS011;7619;48.562;8.910;2022-08-30T03:08:29;4.27;;;3.87;;
15043;SDS011;7619;48.562;8.910;2022-08-30T03:10:56;4.47;;;4.07;;
15043;SDS011;7619;48.562;8.910;2022-08-30T03:13:26;5.93;;;4.07;;
15043;SDS011;7619;48.562;8.910;2022-08-30T03:15:54;6.20;;;4.03;;
15043;SDS011;7619;48.562;8.910;2022-08-30T03:18:23;6.40;;;4.17;;
15043;SDS011;7619;48.562;8.910;2022-08-30T03:20:53;5.73;;;5.00;;
15043;SDS011;7619;48.562;8.910;2022-08-30T03:23:22;4.57;;;3.97;;
15043;SDS011;7619;48.562;8.910;2022-08-30T03:25:51;6.57;;;4.53;;
15043;SDS011;7619;48.562;8.910;2022-08-30T03:28:20;5.87;;;4.37;;
15043;SDS011;7619;48.562;8.910;2022-08-30T03:30:50;7.43;;;4.50;;
15043;SDS011;7619;48.562;8.910;2022-08-30T03:33:17;8.07;;;4.73;;
15043;SDS011;7619;48.562;8.910;2022-08-30T03:35:46;4.93;;;4.43;;
15043;SDS011;7619;48.562;8.910;2022-08-30T03:38:15;5.83;;;3.70;;
15043;SDS011;7619;48.562;8.910;2022-08-30T03:40:45;7.13;;;4.43;;
15043;SDS011;7619;48.562;8.910;2022-08-30T03:43:14;6.40;;;4.73;;
15043;SDS011;7619;48.562;8.910;2022-08-30T03:45:43;7.93;;;4.97;;
15043;SDS011;7619;48.562;8.910;2022-08-30T03:48:12;7.00;;;5.13;;
15043;SDS011;7619;48.562;8.910;2022-08-30T03:50:40;5.43;;;4.83;;
15043;SDS011;7619;48.562;8.910;2022-08-30T03:53:09;5.43;;;4.90;;
15043;SDS011;7619;48.562;8.910;2022-08-30T03:55:37;6.63;;;4.93;;
15043;SDS011;7619;48.562;8.910;2022-08-30T03:58:06;5.43;;;4.63;;
15043;SDS011;7619;48.562;8.910;2022-08-30T04:00:34;4.40;;;4.00;;
15043;SDS011;7619;48.562;8.910;2022-08-30T04:03:03;6.03;;;4.67;;
15043;SDS011;7619;48.562;8.910;2022-08-30T04:05:31;5.73;;;4.80;;
15043;SDS011;7619;48.562;8.910;2022-08-30T04:07:59;6.10;;;5.50;;
15043;SDS011;7619;48.562;8.910;2022-08-30T04:10:28;7.70;;;4.97;;
15043;SDS011;7619;48.562;8.910;2022-08-30T04:12:57;9.27;;;5.30;;
15043;SDS011;7619;48.562;8.910;2022-08-30T04:15:26;5.67;;;5.07;;
15043;SDS011;7619;48.562;8.910;2022-08-30T04:17:55;8.00;;;4.83;;
15043;SDS011;7619;48.562;8.910;2022-08-30T04:20:24;5.43;;;4.27;;
15043;SDS011;7619;48.562;8.910;2022-08-30T04:22:53;7.90;;;5.07;;
15043;SDS011;7619;48.562;8.910;2022-08-30T04:25:22;6.20;;;5.60;;
15043;SDS011;7619;48.562;8.910;2022-08-30T04:27:52;6.37;;;4.70;;
15043;SDS011;7619;48.562;8.910;2022-08-30T04:30:21;6.97;;;4.43;;
15043;SDS011;7619;48.562;8.910;2022-08-30T04:32:50;6.17;;;5.57;;
15043;SDS011;7619;48.562;8.910;2022-08-30T04:35:19;7.27;;;5.13;;
15043;SDS011;7619;48.562;8.910;2022-08-30T04:37:48;6.73;;;4.90;;
15043;SDS011;7619;48.562;8.910;2022-08-30T04:40:17;5.43;;;4.50;;
15043;SDS011;7619;48.562;8.910;2022-08-30T04:42:46;7.70;;;5.10;;
15043;SDS011;7619;48.562;8.910;2022-08-30T04:45:19;7.63;;;5.63;;
15043;SDS011;7619;48.562;8.910;2022-08-30T04:47:48;5.37;;;4.87;;
15043;SDS011;7619;48.562;8.910;2022-08-30T04:50:18;5.57;;;4.07;;
15043;SDS011;7619;48.562;8.910;2022-08-30T04:52:46;5.43;;;4.50;;
15043;SDS011;7619;48.562;8.910;2022-08-30T04:55:16;5.10;;;4.37;;
15043;SDS011;7619;48.562;8.910;2022-08-30T04:57:45;5.17;;;4.50;;
15043;SDS011;7619;48.562;8.910;2022-08-30T05:00:15;5.93;;;4.23;;
15043;SDS011;7619;48.562;8.910;2022-08-30T05:02:45;4.60;;;4.07;;
15043;SDS011;7619;48.562;8.910;2022-08-30T05:05:15;6.27;;;4.87;;
15043;SDS011;7619;48.562;8.910;2022-08-30T05:08:02;5.30;;;4.40;;
15043;SDS011;7619;48.562;8.910;2022-08-30T05:10:30;5.97;;;4.90;;
15043;SDS011;7619;48.562;8.910;2022-08-30T05:12:59;6.13;;;4.23;;
15043;SDS011;7619;48.562;8.910;2022-08-30T05:15:28;6.53;;;5.07;;
15043;SDS011;7619;48.562;8.910;2022-08-30T05:17:57;5.63;;;4.73;;
15043;SDS011;7619;48.562;8.910;2022-08-30T05:20:26;5.10;;;4.60;;
15043;SDS011;7619;48.562;8.910;2022-08-30T05:22:55;5.80;;;4.67;;
15043;SDS011;7619;48.562;8.910;2022-08-30T05:25:25;5.13;;;4.33;;
15043;SDS011;7619;48.562;8.910;2022-08-30T05:27:57;6.93;;;5.03;;
15043;SDS011;7619;48.562;8.910;2022-08-30T05:30:27;6.07;;;4.03;;
15043;SDS011;7619;48.562;8.910;2022-08-30T05:32:58;5.57;;;4.23;;
15043;SDS011;7619;48.562;8.910;2022-08-30T05:35:26;5.70;;;3.73;;
15043;SDS011;7619;48.562;8.910;2022-08-30T05:37:55;4.63;;;4.10;;
15043;SDS011;7619;48.562;8.910;2022-08-30T05:40:24;4.90;;;4.43;;
15043;SDS011;7619;48.562;8.910;2022-08-30T05:42:53;5.50;;;3.90;;
15043;SDS011;7619;48.562;8.910;2022-08-30T05:45:22;4.57;;;4.17;;
15043;SDS011;7619;48.562;8.910;2022-08-30T05:47:51;4.40;;;4.00;;
15043;SDS011;7619;48.562;8.910;2022-08-30T05:50:20;5.80;;;4.07;;
15043;SDS011;7619;48.562;8.910;2022-08-30T05:52:49;4.60;;;3.97;;
15043;SDS011;7619;48.562;8.910;2022-08-30T05:55:18;4.30;;;3.27;;
15043;SDS011;7619;48.562;8.910;2022-08-30T05:57:48;4.50;;;3.67;;
15043;SDS011;7619;48.562;8.910;2022-08-30T06:00:18;4.13;;;3.73;;
15043;SDS011;7619;48.562;8.910;2022-08-30T06:02:47;3.60;;;3.30;;
15043;SDS011;7619;48.562;8.910;2022-08-30T06:05:20;4.47;;;3.43;;
15043;SDS011;7619;48.562;8.910;2022-08-30T06:07:49;4.13;;;3.57;;
15043;SDS011;7619;48.562;8.910;2022-08-30T06:10:18;4.37;;;3.97;;
15043;SDS011;7619;48.562;8.910;2022-08-30T06:12:47;4.70;;;4.30;;
15043;SDS011;7619;48.562;8.910;2022-08-30T06:15:17;5.33;;;4.17;;
15043;SDS011;7619;48.562;8.910;2022-08-30T06:17:46;4.97;;;4.37;;
15043;SDS011;7619;48.562;8.910;2022-08-30T06:20:16;5.50;;;4.17;;
15043;SDS011;7619;48.562;8.910;2022-08-30T06:22:45;4.00;;;3.53;;
15043;SDS011;7619;48.562;8.910;2022-08-30T06:25:15;4.20;;;3.80;;
15043;SDS011;7619;48.562;8.910;2022-08-30T06:27:43;4.93;;;4.33;;
15043;SDS011;7619;48.562;8.910;2022-08-30T06:30:11;4.37;;;3.97;;
15043;SDS011;7619;48.562;8.910;2022-08-30T06:32:40;6.67;;;4.30;;
15043;SDS011;7619;48.562;8.910;2022-08-30T06:35:10;5.03;;;3.97;;
15043;SDS011;7619;48.562;8.910;2022-08-30T06:37:38;3.67;;;3.37;;
15043;SDS011;7619;48.562;8.910;2022-08-30T06:40:09;5.00;;;4.17;;
15043;SDS011;7619;48.562;8.910;2022-08-30T06:42:42;5.03;;;3.83;;
15043;SDS011;7619;48.562;8.910;2022-08-30T06:45:10;5.60;;;3.70;;
15043;SDS011;7619;48.562;8.910;2022-08-30T06:47:41;5.17;;;3.63;;
15043;SDS011;7619;48.562;8.910;2022-08-30T06:50:10;6.60;;;3.53;;
15043;SDS011;7619;48.562;8.910;2022-08-30T06:52:42;5.67;;;4.47;;
15043;SDS011;7619;48.562;8.910;2022-08-30T06:55:11;3.93;;;3.53;;
15043;SDS011;7619;48.562;8.910;2022-08-30T06:57:39;4.17;;;3.53;;
15043;SDS011;7619;48.562;8.910;2022-08-30T07:00:10;5.57;;;4.50;;
15043;SDS011;7619;48.562;8.910;2022-08-30T07:05:15;5.10;;;4.17;;
15043;SDS011;7619;48.562;8.910;2022-08-30T07:07:43;5.13;;;4.00;;
15043;SDS011;7619;48.562;8.910;2022-08-30T07:10:15;3.97;;;3.57;;
15043;SDS011;7619;48.562;8.910;2022-08-30T07:12:43;4.40;;;3.70;;
15043;SDS011;7619;48.562;8.910;2022-08-30T07:15:11;4.63;;;4.23;;
15043;SDS011;7619;48.562;8.910;2022-08-30T07:17:49;3.97;;;3.57;;
15043;SDS011;7619;48.562;8.910;2022-08-30T07:23:24;8.57;;;4.40;;
15043;SDS011;7619;48.562;8.910;2022-08-30T07:25:53;4.63;;;3.97;;
15043;SDS011;7619;48.562;8.910;2022-08-30T07:31:00;4.70;;;4.17;;
15043;SDS011;7619;48.562;8.910;2022-08-30T07:33:29;5.60;;;4.33;;
15043;SDS011;7619;48.562;8.910;2022-08-30T07:38:33;4.67;;;3.83;;
15043;SDS011;7619;48.562;8.910;2022-08-30T07:43:43;5.20;;;4.33;;
15043;SDS011;7619;48.562;8.910;2022-08-30T07:46:12;4.00;;;3.57;;
15043;SDS011;7619;48.562;8.910;2022-08-30T07:48:42;5.73;;;4.23;;
15043;SDS011;7619;48.562;8.910;2022-08-30T07:51:12;4.37;;;3.97;;
15043;SDS011;7619;48.562;8.910;2022-08-30T07:53:43;6.23;;;4.23;;
15043;SDS011;7619;48.562;8.910;2022-08-30T07:56:12;5.60;;;3.97;;
15043;SDS011;7619;48.562;8.910;2022-08-30T07:58:42;4.60;;;4.03;;
15043;SDS011;7619;48.562;8.910;2022-08-30T08:01:11;4.43;;;3.83;;
15043;SDS011;7619;48.562;8.910;2022-08-30T08:03:41;4.30;;;3.73;;
15043;SDS011;7619;48.562;8.910;2022-08-30T08:06:11;6.10;;;4.27;;
15043;SDS011;7619;48.562;8.910;2022-08-30T08:08:39;4.13;;;3.73;;
15043;SDS011;7619;48.562;8.910;2022-08-30T08:11:09;4.87;;;3.27;;
15043;SDS011;7619;48.562;8.910;2022-08-30T08:13:41;4.33;;;3.83;;
15043;SDS011;7619;48.562;8.910;2022-08-30T08:16:11;6.13;;;3.77;;
15043;SDS011;7619;48.562;8.910;2022-08-30T08:18:48;6.37;;;4.20;;
15043;SDS011;7619;48.562;8.910;2022-08-30T08:21:18;5.40;;;3.63;;
15043;SDS011;7619;48.562;8.910;2022-08-30T08:23:45;4.70;;;3.10;;
15043;SDS011;7619;48.562;8.910;2022-08-30T08:26:14;6.17;;;3.30;;
15043;SDS011;7619;48.562;8.910;2022-08-30T08:28:44;3.60;;;3.17;;
15043;SDS011;7619;48.562;8.910;2022-08-30T08:31:15;4.17;;;2.97;;
15043;SDS011;7619;48.562;8.910;2022-08-30T08:33:46;4.53;;;3.60;;
15043;SDS011;7619;48.562;8.910;2022-08-30T08:36:15;3.77;;;3.33;;
15043;SDS011;7619;48.562;8.910;2022-08-30T08:38:44;6.50;;;3.43;;
15043;SDS011;7619;48.562;8.910;2022-08-30T08:41:18;3.83;;;2.80;;
15043;SDS011;7619;48.562;8.910;2022-08-30T08:43:46;3.70;;;2.93;;
15043;SDS011;7619;48.562;8.910;2022-08-30T08:46:15;5.10;;;3.43;;
15043;SDS011;7619;48.562;8.910;2022-08-30T08:48:47;3.83;;;3.20;;
15043;SDS011;7619;48.562;8.910;2022-08-30T08:51:19;5.43;;;3.20;;
15043;SDS011;7619;48.562;8.910;2022-08-30T08:54:10;3.80;;;3.00;;
15043;SDS011;7619;48.562;8.910;2022-08-30T08:56:39;3.50;;;3.20;;
15043;SDS011;7619;48.562;8.910;2022-08-30T08:59:09;3.63;;;3.33;;
15043;SDS011;7619;48.562;8.910;2022-08-30T09:01:40;3.97;;;3.33;;
15043;SDS011;7619;48.562;8.910;2022-08-30T09:04:11;3.83;;;3.10;;
15043;SDS011;7619;48.562;8.910;2022-08-30T09:06:48;3.27;;;2.83;;
15043;SDS011;7619;48.562;8.910;2022-08-30T09:09:22;3.47;;;2.93;;
15043;SDS011;7619;48.562;8.910;2022-08-30T09:11:52;3.70;;;2.90;;
15043;SDS011;7619;48.562;8.910;2022-08-30T09:14:25;5.10;;;3.00;;
15043;SDS011;7619;48.562;8.910;2022-08-30T09:17:04;2.77;;;2.53;;
15043;SDS011;7619;48.562;8.910;2022-08-30T09:19:40;3.80;;;3.50;;
15043;SDS011;7619;48.562;8.910;2022-08-30T09:24:49;3.33;;;3.03;;
15043;SDS011;7619;48.562;8.910;2022-08-30T09:27:22;4.37;;;2.83;;
15043;SDS011;7619;48.562;8.910;2022-08-30T09:29:53;3.10;;;2.80;;
15043;SDS011;7619;48.562;8.910;2022-08-30T09:32:36;3.20;;;2.90;;
15043;SDS011;7619;48.562;8.910;2022-08-30T09:35:08;2.57;;;2.37;;
15043;SDS011;7619;48.562;8.910;2022-08-30T09:37:37;2.53;;;2.33;;
15043;SDS011;7619;48.562;8.910;2022-08-30T09:40:11;3.60;;;2.90;;
15043;SDS011;7619;48.562;8.910;2022-08-30T09:42:39;5.90;;;3.23;;
15043;SDS011;7619;48.562;8.910;2022-08-30T09:45:19;4.00;;;2.63;;
15043;SDS011;7619;48.562;8.910;2022-08-30T09:47:47;3.83;;;2.70;;
15043;SDS011;7619;48.562;8.910;2022-08-30T09:50:24;3.27;;;2.67;;
15043;SDS011;7619;48.562;8.910;2022-08-30T09:53:01;3.23;;;2.93;;
15043;SDS011;7619;48.562;8.910;2022-08-30T09:55:50;3.17;;;2.60;;
15043;SDS011;7619;48.562;8.910;2022-08-30T09:58:28;2.73;;;2.53;;
15043;SDS011;7619;48.562;8.910;2022-08-30T10:01:03;5.60;;;2.90;;
15043;SDS011;7619;48.562;8.910;2022-08-30T10:03:37;3.13;;;2.90;;
15043;SDS011;7619;48.562;8.910;2022-08-30T10:06:07;3.60;;;3.13;;
15043;SDS011;7619;48.562;8.910;2022-08-30T10:08:41;3.23;;;2.30;;
15043;SDS011;7619;48.562;8.910;2022-08-30T10:11:19;4.80;;;2.83;;
15043;SDS011;7619;48.562;8.910;2022-08-30T10:13:59;3.03;;;2.50;;
15043;SDS011;7619;48.562;8.910;2022-08-30T10:16:30;2.87;;;2.50;;
15043;SDS011;7619;48.562;8.910;2022-08-30T10:19:07;2.47;;;2.27;;
15043;SDS011;7619;48.562;8.910;2022-08-30T10:21:39;4.77;;;2.83;;
15043;SDS011;7619;48.562;8.910;2022-08-30T10:24:12;3.43;;;2.90;;
15043;SDS011;7619;48.562;8.910;2022-08-30T10:37:27;2.53;;;2.33;;
15043;SDS011;7619;48.562;8.910;2022-08-30T10:39:58;2.80;;;2.60;;
15043;SDS011;7619;48.562;8.910;2022-08-30T10:42:29;2.57;;;2.37;;
15043;SDS011;7619;48.562;8.910;2022-08-30T10:45:08;2.40;;;2.30;;
15043;SDS011;7619;48.562;8.910;2022-08-30T10:47:41;3.10;;;2.90;;
15043;SDS011;7619;48.562;8.910;2022-08-30T10:50:11;2.13;;;1.93;;
15043;SDS011;7619;48.562;8.910;2022-08-30T10:52:55;2.27;;;2.00;;
15043;SDS011;7619;48.562;8.910;2022-08-30T10:55:23;2.70;;;2.50;;
15043;SDS011;7619;48.562;8.910;2022-08-30T10:57:58;2.90;;;2.57;;
15043;SDS011;7619;48.562;8.910;2022-08-30T11:00:27;6.83;;;3.00;;
15043;SDS011;7619;48.562;8.910;2022-08-30T11:05:42;3.00;;;2.10;;
15043;SDS011;7619;48.562;8.910;2022-08-30T11:11:00;2.40;;;2.20;;
15043;SDS011;7619;48.562;8.910;2022-08-30T11:13:31;3.00;;;2.70;;
15043;SDS011;7619;48.562;8.910;2022-08-30T11:16:03;2.53;;;2.30;;
15043;SDS011;7619;48.562;8.910;2022-08-30T11:18:40;2.47;;;2.27;;
15043;SDS011;7619;48.562;8.910;2022-08-30T11:21:22;2.70;;;2.50;;
15043;SDS011;7619;48.562;8.910;2022-08-30T11:24:13;2.60;;;2.40;;
15043;SDS011;7619;48.562;8.910;2022-08-30T11:26:51;2.73;;;2.40;;
15043;SDS011;7619;48.562;8.910;2022-08-30T11:29:35;3.33;;;2.33;;
15043;SDS011;7619;48.562;8.910;2022-08-30T11:32:20;2.70;;;2.50;;
15043;SDS011;7619;48.562;8.910;2022-08-30T11:34:54;2.60;;;2.40;;
15043;SDS011;7619;48.562;8.910;2022-08-30T11:37:36;2.60;;;2.37;;
15043;SDS011;7619;48.562;8.910;2022-08-30T11:49:35;2.93;;;2.50;;
15043;SDS011;7619;48.562;8.910;2022-08-30T11:52:19;2.40;;;2.20;;
15043;SDS011;7619;48.562;8.910;2022-08-30T11:54:54;2.20;;;2.00;;
15043;SDS011;7619;48.562;8.910;2022-08-30T11:57:37;2.70;;;2.50;;
15043;SDS011;7619;48.562;8.910;2022-08-30T12:00:09;2.17;;;2.07;;
15043;SDS011;7619;48.562;8.910;2022-08-30T12:02:43;2.50;;;2.30;;
15043;SDS011;7619;48.562;8.910;2022-08-30T12:17:22;2.53;;;2.33;;
15043;SDS011;7619;48.562;8.910;2022-08-30T12:20:23;6.40;;;3.27;;
15043;SDS011;7619;48.562;8.910;2022-08-30T12:22:55;2.40;;;2.20;;
15043;SDS011;7619;48.562;8.910;2022-08-30T12:25:28;2.90;;;2.50;;
15043;SDS011;7619;48.562;8.910;2022-08-30T12:30:45;2.90;;;2.43;;
15043;SDS011;7619;48.562;8.910;2022-08-30T12:33:24;2.93;;;2.23;;
15043;SDS011;7619;48.562;8.910;2022-08-30T12:35:51;3.03;;;2.63;;
15043;SDS011;7619;48.562;8.910;2022-08-30T12:38:20;3.10;;;2.43;;
15043;SDS011;7619;48.562;8.910;2022-08-30T12:40:50;2.57;;;2.37;;
15043;SDS011;7619;48.562;8.910;2022-08-30T12:43:23;2.80;;;2.60;;
15043;SDS011;7619;48.562;8.910;2022-08-30T12:45:56;2.60;;;2.20;;
15043;SDS011;7619;48.562;8.910;2022-08-30T12:48:29;2.50;;;2.20;;
15043;SDS011;7619;48.562;8.910;2022-08-30T12:51:02;2.57;;;2.23;;
15043;SDS011;7619;48.562;8.910;2022-08-30T12:53:30;2.47;;;2.27;;
15043;SDS011;7619;48.562;8.910;2022-08-30T12:56:03;2.80;;;2.27;;
15043;SDS011;7619;48.562;8.910;2022-08-30T12:58:39;2.97;;;2.27;;
15043;SDS011;7619;48.562;8.910;2022-08-30T13:01:10;2.63;;;2.27;;
15043;SDS011;7619;48.562;8.910;2022-08-30T13:03:53;2.60;;;2.40;;
15043;SDS011;7619;48.562;8.910;2022-08-30T13:06:35;2.50;;;2.30;;
15043;SDS011;7619;48.562;8.910;2022-08-30T13:09:03;3.00;;;2.70;;
15043;SDS011;7619;48.562;8.910;2022-08-30T13:11:32;3.37;;;2.50;;
15043;SDS011;7619;48.562;8.910;2022-08-30T13:17:03;2.27;;;2.07;;
15043;SDS011;7619;48.562;8.910;2022-08-30T13:22:23;2.70;;;2.50;;
15043;SDS011;7619;48.562;8.910;2022-08-30T13:24:53;4.10;;;3.03;;
15043;SDS011;7619;48.562;8.910;2022-08-30T13:30:06;3.23;;;2.47;;
15043;SDS011;7619;48.562;8.910;2022-08-30T13:32:37;2.80;;;2.57;;
15043;SDS011;7619;48.562;8.910;2022-08-30T13:35:06;2.80;;;2.57;;
15043;SDS011;7619;48.562;8.910;2022-08-30T13:37:36;3.10;;;2.40;;
15043;SDS011;7619;48.562;8.910;2022-08-30T13:40:08;2.80;;;2.60;;
15043;SDS011;7619;48.562;8.910;2022-08-30T13:42:40;3.33;;;2.27;;
15043;SDS011;7619;48.562;8.910;2022-08-30T13:45:09;3.47;;;2.40;;
15043;SDS011;7619;48.562;8.910;2022-08-30T13:47:39;2.87;;;2.30;;
15043;SDS011;7619;48.562;8.910;2022-08-30T13:50:09;2.73;;;2.53;;
15043;SDS011;7619;48.562;8.910;2022-08-30T13:52:37;2.63;;;2.43;;
15043;SDS011;7619;48.562;8.910;2022-08-30T13:55:07;2.83;;;2.63;;
15043;SDS011;7619;48.562;8.910;2022-08-30T13:57:38;3.63;;;2.40;;
15043;SDS011;7619;48.562;8.910;2022-08-30T14:00:09;3.47;;;2.80;;
15043;SDS011;7619;48.562;8.910;2022-08-30T14:02:42;2.77;;;2.57;;
15043;SDS011;7619;48.562;8.910;2022-08-30T14:05:12;3.13;;;2.47;;
15043;SDS011;7619;48.562;8.910;2022-08-30T14:07:41;2.93;;;2.47;;
15043;SDS011;7619;48.562;8.910;2022-08-30T14:10:10;3.57;;;2.97;;
15043;SDS011;7619;48.562;8.910;2022-08-30T14:12:40;3.17;;;2.23;;
15043;SDS011;7619;48.562;8.910;2022-08-30T14:15:11;3.67;;;2.80;;
15043;SDS011;7619;48.562;8.910;2022-08-30T14:17:40;2.97;;;2.67;;
15043;SDS011;7619;48.562;8.910;2022-08-30T14:20:10;2.77;;;2.50;;
15043;SDS011;7619;48.562;8.910;2022-08-30T14:22:38;3.20;;;2.60;;
15043;SDS011;7619;48.562;8.910;2022-08-30T14:25:08;3.23;;;2.50;;
15043;SDS011;7619;48.562;8.910;2022-08-30T14:27:37;2.50;;;2.30;;
15043;SDS011;7619;48.562;8.910;2022-08-30T14:30:07;2.40;;;2.20;;
15043;SDS011;7619;48.562;8.910;2022-08-30T14:32:38;2.60;;;2.40;;
15043;SDS011;7619;48.562;8.910;2022-08-30T14:35:07;2.63;;;2.43;;
15043;SDS011;7619;48.562;8.910;2022-08-30T14:37:34;3.37;;;2.60;;
15043;SDS011;7619;48.562;8.910;2022-08-30T14:40:06;3.07;;;2.40;;
15043;SDS011;7619;48.562;8.910;2022-08-30T14:42:43;2.73;;;2.40;;
15043;SDS011;7619;48.562;8.910;2022-08-30T14:45:12;2.90;;;2.60;;
15043;SDS011;7619;48.562;8.910;2022-08-30T14:47:41;2.73;;;2.53;;
15043;SDS011;7619;48.562;8.910;2022-08-30T14:50:11;3.13;;;2.80;;
15043;SDS011;7619;48.562;8.910;2022-08-30T14:52:38;2.93;;;2.47;;
15043;SDS011;7619;48.562;8.910;2022-08-30T14:55:08;2.93;;;2.70;;
15043;SDS011;7619;48.562;8.910;2022-08-30T14:57:39;3.03;;;2.83;;
15043;SDS011;7619;48.562;8.910;2022-08-30T15:00:10;2.90;;;2.60;;
15043;SDS011;7619;48.562;8.910;2022-08-30T15:02:41;3.33;;;2.40;;
15043;SDS011;7619;48.562;8.910;2022-08-30T15:05:10;4.87;;;3.07;;
15043;SDS011;7619;48.562;8.910;2022-08-30T15:07:39;2.83;;;2.63;;
15043;SDS011;7619;48.562;8.910;2022-08-30T15:10:09;4.47;;;3.10;;
15043;SDS011;7619;48.562;8.910;2022-08-30T15:12:40;3.50;;;2.70;;
15043;SDS011;7619;48.562;8.910;2022-08-30T15:15:09;2.80;;;2.60;;
15043;SDS011;7619;48.562;8.910;2022-08-30T15:17:37;2.73;;;2.50;;
15043;SDS011;7619;48.562;8.910;2022-08-30T15:20:07;4.33;;;2.90;;
15043;SDS011;7619;48.562;8.910;2022-08-30T15:22:38;3.23;;;2.90;;
15043;SDS011;7619;48.562;8.910;2022-08-30T15:25:06;2.73;;;2.50;;
15043;SDS011;7619;48.562;8.910;2022-08-30T15:27:36;4.03;;;3.63;;
15043;SDS011;7619;48.562;8.910;2022-08-30T15:30:06;4.57;;;2.77;;
15043;SDS011;7619;48.562;8.910;2022-08-30T15:32:37;3.97;;;2.63;;
15043;SDS011;7619;48.562;8.910;2022-08-30T15:35:20;3.73;;;2.43;;
15043;SDS011;7619;48.562;8.910;2022-08-30T15:37:49;3.40;;;3.10;;
15043;SDS011;7619;48.562;8.910;2022-08-30T15:40:18;3.73;;;2.63;;
15043;SDS011;7619;48.562;8.910;2022-08-30T15:42:49;3.20;;;2.90;;
15043;SDS011;7619;48.562;8.910;2022-08-30T15:45:20;3.03;;;2.80;;
15043;SDS011;7619;48.562;8.910;2022-08-30T15:47:48;2.60;;;2.40;;
15043;SDS011;7619;48.562;8.910;2022-08-30T15:50:18;3.93;;;2.87;;
15043;SDS011;7619;48.562;8.910;2022-08-30T15:52:46;3.10;;;2.83;;
15043;SDS011;7619;48.562;8.910;2022-08-30T15:55:15;3.50;;;2.63;;
15043;SDS011;7619;48.562;8.910;2022-08-30T16:00:38;3.53;;;2.77;;
15043;SDS011;7619;48.562;8.910;2022-08-30T16:03:07;3.20;;;2.67;;
15043;SDS011;7619;48.562;8.910;2022-08-30T16:05:36;4.83;;;2.60;;
15043;SDS011;7619;48.562;8.910;2022-08-30T16:08:05;4.03;;;2.97;;
15043;SDS011;7619;48.562;8.910;2022-08-30T16:10:34;2.60;;;2.40;;
15043;SDS011;7619;48.562;8.910;2022-08-30T16:13:03;2.90;;;2.70;;
15043;SDS011;7619;48.562;8.910;2022-08-30T16:15:32;4.07;;;2.53;;
15043;SDS011;7619;48.562;8.910;2022-08-30T16:18:13;3.13;;;2.83;;
15043;SDS011;7619;48.562;8.910;2022-08-30T16:20:42;4.67;;;2.80;;
15043;SDS011;7619;48.562;8.910;2022-08-30T16:23:12;3.10;;;2.90;;
15043;SDS011;7619;48.562;8.910;2022-08-30T16:25:41;4.63;;;2.90;;
15043;SDS011;7619;48.562;8.910;2022-08-30T16:28:10;2.57;;;2.30;;
15043;SDS011;7619;48.562;8.910;2022-08-30T16:30:39;3.10;;;2.80;;
15043;SDS011;7619;48.562;8.910;2022-08-30T16:33:09;2.57;;;2.37;;
15043;SDS011;7619;48.562;8.910;2022-08-30T16:35:36;2.83;;;2.63;;